sensor_id;sensor_type;location;lat;lon;timestamp;pressure;altitude;pressure_sealevel;temperature;humidity
51452;BME280;37521;52.020;-1.740;2022-10-23T00:01:12;99170.66;;;11.18;100.00
51452;BME280;37521;52.020;-1.740;2022-10-23T00:03:41;99156.59;;;11.17;100.00
51452;BME280;37521;52.020;-1.740;2022-10-23T00:06:10;99155.81;;;11.15;100.00
51452;BME280;37521;52.020;-1.740;2022-10-23T00:08:38;99161.19;;;11.14;100.00
51452;BME280;37521;52.020;-1.740;2022-10-23T00:11:07;99157.63;;;11.15;100.00
51452;BME280;37521;52.020;-1.740;2022-10-23T00:13:36;99154.97;;;11.15;100.00
51452;BME280;37521;52.020;-1.740;2022-10-23T00:16:05;99148.84;;;11.14;100.00
51452;BME280;37521;52.020;-1.740;2022-10-23T00:18:33;99159.50;;;11.13;100.00
51452;BME280;37521;52.020;-1.740;2022-10-23T00:21:04;99151.69;;;11.11;100.00
51452;BME280;37521;52.020;-1.740;2022-10-23T00:23:32;99150.84;;;11.11;100.00
51452;BME280;37521;52.020;-1.740;2022-10-23T00:26:01;99140.28;;;11.11;100.00
51452;BME280;37521;52.020;-1.740;2022-10-23T00:28:29;99135.06;;;11.09;100.00
51452;BME280;37521;52.020;-1.740;2022-10-23T00:30:57;99121.94;;;11.08;100.00
51452;BME280;37521;52.020;-1.740;2022-10-23T00:33:28;99109.50;;;11.10;100.00
51452;BME280;37521;52.020;-1.740;2022-10-23T00:35:56;99108.75;;;11.08;100.00
51452;BME280;37521;52.020;-1.740;2022-10-23T00:38:25;99108.75;;;11.08;100.00
51452;BME280;37521;52.020;-1.740;2022-10-23T00:40:53;99099.13;;;11.07;100.00
51452;BME280;37521;52.020;-1.740;2022-10-23T00:43:24;99101.75;;;11.07;100.00
51452;BME280;37521;52.020;-1.740;2022-10-23T00:45:52;99091.19;;;11.07;100.00
51452;BME280;37521;52.020;-1.740;2022-10-23T00:48:21;99089.41;;;11.07;100.00
51452;BME280;37521;52.020;-1.740;2022-10-23T00:50:50;99082.31;;;11.08;100.00
51452;BME280;37521;52.020;-1.740;2022-10-23T00:53:20;99085.91;;;11.07;100.00
51452;BME280;37521;52.020;-1.740;2022-10-23T00:55:51;99084.31;;;11.04;100.00
51452;BME280;37521;52.020;-1.740;2022-10-23T00:58:21;99086.13;;;11.04;100.00
51452;BME280;37521;52.020;-1.740;2022-10-23T01:00:51;99085.34;;;11.02;100.00
51452;BME280;37521;52.020;-1.740;2022-10-23T01:03:23;99084.59;;;11.00;100.00
51452;BME280;37521;52.020;-1.740;2022-10-23T01:05:54;99078.28;;;11.02;100.00
51452;BME280;37521;52.020;-1.740;2022-10-23T01:08:28;99067.72;;;11.02;100.00
51452;BME280;37521;52.020;-1.740;2022-10-23T01:11:04;99075.56;;;11.04;100.00
51452;BME280;37521;52.020;-1.740;2022-10-23T01:13:43;99059.59;;;11.05;100.00
51452;BME280;37521;52.020;-1.740;2022-10-23T01:16:16;99060.44;;;11.06;100.00
51452;BME280;37521;52.020;-1.740;2022-10-23T01:18:50;99051.78;;;11.04;100.00
51452;BME280;37521;52.020;-1.740;2022-10-23T01:21:27;99049.16;;;11.04;100.00
51452;BME280;37521;52.020;-1.740;2022-10-23T01:24:07;99057.13;;;11.02;100.00
51452;BME280;37521;52.020;-1.740;2022-10-23T01:26:50;99045.00;;;11.00;100.00
51452;BME280;37521;52.020;-1.740;2022-10-23T01:29:25;99049.53;;;10.98;100.00
51452;BME280;37521;52.020;-1.740;2022-10-23T01:31:58;99042.53;;;10.97;100.00
51452;BME280;37521;52.020;-1.740;2022-10-23T01:34:29;99038.19;;;10.96;100.00
51452;BME280;37521;52.020;-1.740;2022-10-23T01:36:59;99036.50;;;10.95;100.00
51452;BME280;37521;52.020;-1.740;2022-10-23T01:39:33;99030.47;;;10.93;100.00
51452;BME280;37521;52.020;-1.740;2022-10-23T01:42:05;99032.38;;;10.90;100.00
51452;BME280;37521;52.020;-1.740;2022-10-23T01:44:40;99026.25;;;10.90;100.00
51452;BME280;37521;52.020;-1.740;2022-10-23T01:47:09;99016.81;;;10.86;100.00
51452;BME280;37521;52.020;-1.740;2022-10-23T01:49:55;99016.91;;;10.84;100.00
51452;BME280;37521;52.020;-1.740;2022-10-23T01:52:25;99006.53;;;10.81;100.00
51452;BME280;37521;52.020;-1.740;2022-10-23T01:54:57;99002.94;;;10.82;100.00
51452;BME280;37521;52.020;-1.740;2022-10-23T01:57:31;98995.97;;;10.81;100.00
51452;BME280;37521;52.020;-1.740;2022-10-23T02:00:05;98983.72;;;10.80;100.00
51452;BME280;37521;52.020;-1.740;2022-10-23T02:02:50;98986.56;;;10.77;100.00
51452;BME280;37521;52.020;-1.740;2022-10-23T02:05:24;98976.91;;;10.76;100.00
51452;BME280;37521;52.020;-1.740;2022-10-23T02:07:55;98982.19;;;10.76;100.00
51452;BME280;37521;52.020;-1.740;2022-10-23T02:10:27;98970.72;;;10.77;100.00
51452;BME280;37521;52.020;-1.740;2022-10-23T02:13:02;98961.00;;;10.78;100.00
51452;BME280;37521;52.020;-1.740;2022-10-23T02:15:35;98962.81;;;10.77;100.00
51452;BME280;37521;52.020;-1.740;2022-10-23T02:18:08;98954.88;;;10.77;100.00
51452;BME280;37521;52.020;-1.740;2022-10-23T02:20:43;98956.47;;;10.80;100.00
51452;BME280;37521;52.020;-1.740;2022-10-23T02:23:18;98945.06;;;10.79;100.00
51452;BME280;37521;52.020;-1.740;2022-10-23T02:25:52;98939.88;;;10.78;100.00
51452;BME280;37521;52.020;-1.740;2022-10-23T02:28:27;98948.66;;;10.78;100.00
51452;BME280;37521;52.020;-1.740;2022-10-23T02:31:04;98950.97;;;10.83;100.00
51452;BME280;37521;52.020;-1.740;2022-10-23T02:33:35;98942.13;;;10.84;100.00
51452;BME280;37521;52.020;-1.740;2022-10-23T02:36:04;98927.31;;;10.81;100.00
51452;BME280;37521;52.020;-1.740;2022-10-23T02:38:34;98930.91;;;10.80;100.00
51452;BME280;37521;52.020;-1.740;2022-10-23T02:41:13;98924.13;;;10.76;100.00
51452;BME280;37521;52.020;-1.740;2022-10-23T02:43:52;98910.28;;;10.73;100.00
51452;BME280;37521;52.020;-1.740;2022-10-23T02:46:30;98907.75;;;10.71;100.00
51452;BME280;37521;52.020;-1.740;2022-10-23T02:49:08;98901.69;;;10.69;100.00
51452;BME280;37521;52.020;-1.740;2022-10-23T02:51:46;98900.13;;;10.67;100.00
51452;BME280;37521;52.020;-1.740;2022-10-23T02:54:24;98889.44;;;10.68;100.00
51452;BME280;37521;52.020;-1.740;2022-10-23T02:57:00;98887.25;;;10.75;100.00
51452;BME280;37521;52.020;-1.740;2022-10-23T02:59:35;98862.66;;;10.74;100.00
51452;BME280;37521;52.020;-1.740;2022-10-23T03:02:10;98820.00;;;10.80;100.00
51452;BME280;37521;52.020;-1.740;2022-10-23T03:04:44;98780.94;;;10.85;100.00
51452;BME280;37521;52.020;-1.740;2022-10-23T03:07:13;98774.31;;;10.93;100.00
51452;BME280;37521;52.020;-1.740;2022-10-23T03:09:41;98771.66;;;10.93;100.00
51452;BME280;37521;52.020;-1.740;2022-10-23T03:12:09;98788.75;;;10.87;100.00
51452;BME280;37521;52.020;-1.740;2022-10-23T03:14:38;98811.13;;;10.81;100.00
51452;BME280;37521;52.020;-1.740;2022-10-23T03:17:08;98797.38;;;10.76;100.00
51452;BME280;37521;52.020;-1.740;2022-10-23T03:19:37;98804.56;;;10.74;100.00
51452;BME280;37521;52.020;-1.740;2022-10-23T03:22:05;98805.53;;;10.73;100.00
51452;BME280;37521;52.020;-1.740;2022-10-23T03:24:33;98798.56;;;10.72;100.00
51452;BME280;37521;52.020;-1.740;2022-10-23T03:27:01;98785.66;;;10.68;100.00
51452;BME280;37521;52.020;-1.740;2022-10-23T03:29:31;98787.44;;;10.67;100.00
51452;BME280;37521;52.020;-1.740;2022-10-23T03:31:59;98803.50;;;10.64;100.00
51452;BME280;37521;52.020;-1.740;2022-10-23T03:34:28;98814.06;;;10.64;100.00
51452;BME280;37521;52.020;-1.740;2022-10-23T03:36:57;98810.66;;;10.62;100.00
51452;BME280;37521;52.020;-1.740;2022-10-23T03:39:25;98801.88;;;10.61;100.00
51452;BME280;37521;52.020;-1.740;2022-10-23T03:41:53;98796.72;;;10.60;100.00
51452;BME280;37521;52.020;-1.740;2022-10-23T03:44:21;98796.75;;;10.73;100.00
51452;BME280;37521;52.020;-1.740;2022-10-23T03:46:49;98775.97;;;10.81;100.00
51452;BME280;37521;52.020;-1.740;2022-10-23T03:49:17;98773.22;;;10.82;100.00
51452;BME280;37521;52.020;-1.740;2022-10-23T03:51:47;98762.56;;;10.84;100.00
51452;BME280;37521;52.020;-1.740;2022-10-23T03:54:21;98745.78;;;10.85;100.00
51452;BME280;37521;52.020;-1.740;2022-10-23T03:56:50;98743.97;;;10.85;100.00
51452;BME280;37521;52.020;-1.740;2022-10-23T03:59:23;98740.59;;;10.83;100.00
51452;BME280;37521;52.020;-1.740;2022-10-23T04:01:51;98736.59;;;10.90;100.00
51452;BME280;37521;52.020;-1.740;2022-10-23T04:04:19;98734.69;;;10.93;100.00
51452;BME280;37521;52.020;-1.740;2022-10-23T04:06:48;98732.88;;;10.93;100.00
51452;BME280;37521;52.020;-1.740;2022-10-23T04:09:18;98735.66;;;10.91;100.00
51452;BME280;37521;52.020;-1.740;2022-10-23T04:11:46;98737.34;;;10.93;100.00
51452;BME280;37521;52.020;-1.740;2022-10-23T04:14:15;98721.50;;;10.93;100.00
51452;BME280;37521;52.020;-1.740;2022-10-23T04:16:43;98713.56;;;10.93;100.00
51452;BME280;37521;52.020;-1.740;2022-10-23T04:19:12;98708.28;;;10.93;100.00
51452;BME280;37521;52.020;-1.740;2022-10-23T04:21:40;98689.06;;;10.90;100.00
51452;BME280;37521;52.020;-1.740;2022-10-23T04:24:09;98686.44;;;10.90;100.00
51452;BME280;37521;52.020;-1.740;2022-10-23T04:26:38;98686.50;;;10.89;100.00
51452;BME280;37521;52.020;-1.740;2022-10-23T04:29:09;98677.13;;;10.85;100.00
51452;BME280;37521;52.020;-1.740;2022-10-23T04:31:37;98670.88;;;10.86;100.00
51452;BME280;37521;52.020;-1.740;2022-10-23T04:34:05;98669.41;;;10.82;100.00
51452;BME280;37521;52.020;-1.740;2022-10-23T04:36:34;98673.22;;;10.78;100.00
51452;BME280;37521;52.020;-1.740;2022-10-23T04:39:09;98667.28;;;10.74;100.00
51452;BME280;37521;52.020;-1.740;2022-10-23T04:41:38;98671.84;;;10.72;100.00
51452;BME280;37521;52.020;-1.740;2022-10-23T04:44:06;98665.72;;;10.72;100.00
51452;BME280;37521;52.020;-1.740;2022-10-23T04:46:37;98671.09;;;10.70;100.00
51452;BME280;37521;52.020;-1.740;2022-10-23T04:49:05;98670.34;;;10.68;100.00
51452;BME280;37521;52.020;-1.740;2022-10-23T04:51:48;98658.81;;;10.69;100.00
51452;BME280;37521;52.020;-1.740;2022-10-23T04:54:37;98652.81;;;10.67;100.00
51452;BME280;37521;52.020;-1.740;2022-10-23T04:57:25;98655.69;;;10.64;100.00
51452;BME280;37521;52.020;-1.740;2022-10-23T04:59:58;98654.91;;;10.62;100.00
51452;BME280;37521;52.020;-1.740;2022-10-23T05:02:33;98685.44;;;10.66;100.00
51452;BME280;37521;52.020;-1.740;2022-10-23T05:05:02;98700.22;;;10.69;100.00
51452;BME280;37521;52.020;-1.740;2022-10-23T05:07:33;98695.78;;;10.69;100.00
51452;BME280;37521;52.020;-1.740;2022-10-23T05:10:20;98692.94;;;10.72;100.00
51452;BME280;37521;52.020;-1.740;2022-10-23T05:12:55;98723.47;;;10.76;100.00
51452;BME280;37521;52.020;-1.740;2022-10-23T05:15:23;98734.56;;;10.81;100.00
51452;BME280;37521;52.020;-1.740;2022-10-23T05:17:53;98713.03;;;10.87;100.00
51452;BME280;37521;52.020;-1.740;2022-10-23T05:20:28;98719.03;;;11.02;100.00
51452;BME280;37521;52.020;-1.740;2022-10-23T05:23:00;98714.41;;;11.06;100.00
51452;BME280;37521;52.020;-1.740;2022-10-23T05:25:30;98700.03;;;11.10;100.00
51452;BME280;37521;52.020;-1.740;2022-10-23T05:28:09;98694.53;;;11.13;100.00
51452;BME280;37521;52.020;-1.740;2022-10-23T05:30:37;98686.63;;;11.13;100.00
51452;BME280;37521;52.020;-1.740;2022-10-23T05:33:06;98703.44;;;11.12;100.00
51452;BME280;37521;52.020;-1.740;2022-10-23T05:35:40;98677.13;;;11.10;100.00
51452;BME280;37521;52.020;-1.740;2022-10-23T05:38:10;98666.63;;;11.09;100.00
51452;BME280;37521;52.020;-1.740;2022-10-23T05:40:41;98662.44;;;11.06;100.00
51452;BME280;37521;52.020;-1.740;2022-10-23T05:43:15;98666.88;;;11.06;100.00
51452;BME280;37521;52.020;-1.740;2022-10-23T05:45:55;98652.94;;;11.04;100.00
51452;BME280;37521;52.020;-1.740;2022-10-23T05:48:42;98640.75;;;11.01;100.00
51452;BME280;37521;52.020;-1.740;2022-10-23T05:51:11;98637.59;;;10.96;100.00
51452;BME280;37521;52.020;-1.740;2022-10-23T05:54:05;98629.78;;;10.95;100.00
51452;BME280;37521;52.020;-1.740;2022-10-23T05:56:41;98623.78;;;10.93;100.00
51452;BME280;37521;52.020;-1.740;2022-10-23T05:59:19;98628.31;;;10.90;100.00
51452;BME280;37521;52.020;-1.740;2022-10-23T06:01:52;98623.88;;;10.91;100.00
51452;BME280;37521;52.020;-1.740;2022-10-23T06:04:33;98614.16;;;10.91;100.00
51452;BME280;37521;52.020;-1.740;2022-10-23T06:07:22;98622.09;;;10.91;100.00
51452;BME280;37521;52.020;-1.740;2022-10-23T06:09:52;98619.44;;;10.91;100.00
51452;BME280;37521;52.020;-1.740;2022-10-23T06:12:22;98612.13;;;10.95;100.00
51452;BME280;37521;52.020;-1.740;2022-10-23T06:14:51;98598.81;;;10.97;100.00
51452;BME280;37521;52.020;-1.740;2022-10-23T06:17:26;98610.03;;;11.00;100.00
51452;BME280;37521;52.020;-1.740;2022-10-23T06:19:54;98592.38;;;11.01;100.00
51452;BME280;37521;52.020;-1.740;2022-10-23T06:22:27;98595.66;;;11.04;100.00
51452;BME280;37521;52.020;-1.740;2022-10-23T06:25:09;98597.47;;;11.04;100.00
51452;BME280;37521;52.020;-1.740;2022-10-23T06:27:38;98600.84;;;11.06;100.00
51452;BME280;37521;52.020;-1.740;2022-10-23T06:30:08;98592.91;;;11.06;100.00
51452;BME280;37521;52.020;-1.740;2022-10-23T06:32:37;98595.44;;;11.07;100.00
51452;BME280;37521;52.020;-1.740;2022-10-23T06:35:10;98585.72;;;11.08;100.00
51452;BME280;37521;52.020;-1.740;2022-10-23T06:37:38;98577.66;;;11.09;100.00
51452;BME280;37521;52.020;-1.740;2022-10-23T06:40:10;98572.31;;;11.11;100.00
51452;BME280;37521;52.020;-1.740;2022-10-23T06:42:58;98567.94;;;11.10;100.00
51452;BME280;37521;52.020;-1.740;2022-10-23T06:45:28;98543.25;;;11.11;100.00
51452;BME280;37521;52.020;-1.740;2022-10-23T06:48:16;98539.66;;;11.12;100.00
51452;BME280;37521;52.020;-1.740;2022-10-23T06:50:57;98541.53;;;11.10;100.00
51452;BME280;37521;52.020;-1.740;2022-10-23T06:53:35;98553.81;;;11.11;100.00
51452;BME280;37521;52.020;-1.740;2022-10-23T06:56:11;98557.38;;;11.10;100.00
51452;BME280;37521;52.020;-1.740;2022-10-23T06:58:42;98557.38;;;11.10;100.00
51452;BME280;37521;52.020;-1.740;2022-10-23T07:01:14;98560.78;;;11.12;100.00
51452;BME280;37521;52.020;-1.740;2022-10-23T07:03:43;98573.03;;;11.13;100.00
51452;BME280;37521;52.020;-1.740;2022-10-23T07:06:12;98556.22;;;11.14;100.00
51452;BME280;37521;52.020;-1.740;2022-10-23T07:08:41;98531.47;;;11.15;100.00
51452;BME280;37521;52.020;-1.740;2022-10-23T07:11:30;98499.91;;;11.13;100.00
51452;BME280;37521;52.020;-1.740;2022-10-23T07:13:59;98499.06;;;11.13;100.00
51452;BME280;37521;52.020;-1.740;2022-10-23T07:16:27;98501.69;;;11.13;100.00
51452;BME280;37521;52.020;-1.740;2022-10-23T07:18:58;98507.09;;;11.11;100.00
51452;BME280;37521;52.020;-1.740;2022-10-23T07:21:28;98516.84;;;11.11;100.00
51452;BME280;37521;52.020;-1.740;2022-10-23T07:24:16;98541.53;;;11.10;100.00
51452;BME280;37521;52.020;-1.740;2022-10-23T07:26:44;98559.09;;;11.11;100.00
51452;BME280;37521;52.020;-1.740;2022-10-23T07:29:14;98576.63;;;11.12;100.00
51452;BME280;37521;52.020;-1.740;2022-10-23T07:31:42;98565.94;;;11.13;100.00
51452;BME280;37521;52.020;-1.740;2022-10-23T07:34:29;98573.03;;;11.13;100.00
51452;BME280;37521;52.020;-1.740;2022-10-23T07:37:16;98569.31;;;11.15;100.00
51452;BME280;37521;52.020;-1.740;2022-10-23T07:39:45;98571.75;;;11.18;100.00
51452;BME280;37521;52.020;-1.740;2022-10-23T07:42:13;98577.03;;;11.18;100.00
51452;BME280;37521;52.020;-1.740;2022-10-23T07:44:44;98570.78;;;11.19;100.00
51452;BME280;37521;52.020;-1.740;2022-10-23T07:47:13;98558.44;;;11.20;100.00
51452;BME280;37521;52.020;-1.740;2022-10-23T07:49:46;98534.66;;;11.20;100.00
51452;BME280;37521;52.020;-1.740;2022-10-23T07:52:14;98533.69;;;11.21;100.00
51452;BME280;37521;52.020;-1.740;2022-10-23T07:55:02;98537.28;;;11.20;100.00
51452;BME280;37521;52.020;-1.740;2022-10-23T07:57:33;98543.66;;;11.17;100.00
51452;BME280;37521;52.020;-1.740;2022-10-23T08:00:11;98515.75;;;11.13;100.00
51452;BME280;37521;52.020;-1.740;2022-10-23T08:02:40;98511.56;;;11.11;100.00
51452;BME280;37521;52.020;-1.740;2022-10-23T08:05:10;98507.44;;;11.07;100.00
51452;BME280;37521;52.020;-1.740;2022-10-23T08:07:48;98488.22;;;11.05;100.00
51452;BME280;37521;52.020;-1.740;2022-10-23T08:10:16;98482.19;;;11.03;100.00
51452;BME280;37521;52.020;-1.740;2022-10-23T08:12:45;98476.06;;;11.02;100.00
51452;BME280;37521;52.020;-1.740;2022-10-23T08:15:15;98524.66;;;11.00;100.00
51452;BME280;37521;52.020;-1.740;2022-10-23T08:17:54;98532.78;;;10.97;100.00
51452;BME280;37521;52.020;-1.740;2022-10-23T08:20:38;98523.44;;;10.93;100.00
51452;BME280;37521;52.020;-1.740;2022-10-23T08:23:07;98513.31;;;10.86;100.00
51452;BME280;37521;52.020;-1.740;2022-10-23T08:25:36;98508.44;;;10.80;100.00
51452;BME280;37521;52.020;-1.740;2022-10-23T08:28:04;98498.13;;;10.77;100.00
51452;BME280;37521;52.020;-1.740;2022-10-23T08:30:43;98485.84;;;10.76;100.00
51452;BME280;37521;52.020;-1.740;2022-10-23T08:33:11;98491.13;;;10.76;100.00
51452;BME280;37521;52.020;-1.740;2022-10-23T08:35:40;98481.44;;;10.77;100.00
51452;BME280;37521;52.020;-1.740;2022-10-23T08:38:09;98482.28;;;10.77;100.00
51452;BME280;37521;52.020;-1.740;2022-10-23T08:40:44;98471.72;;;10.77;100.00
51452;BME280;37521;52.020;-1.740;2022-10-23T08:43:35;98462.00;;;10.78;100.00
51452;BME280;37521;52.020;-1.740;2022-10-23T08:46:24;98458.28;;;10.80;100.00
51452;BME280;37521;52.020;-1.740;2022-10-23T08:49:28;98442.00;;;10.86;100.00
51452;BME280;37521;52.020;-1.740;2022-10-23T08:52:06;98430.16;;;10.92;100.00
51452;BME280;37521;52.020;-1.740;2022-10-23T08:54:51;98408.69;;;10.97;100.00
51452;BME280;37521;52.020;-1.740;2022-10-23T08:57:23;98416.16;;;11.03;100.00
51452;BME280;37521;52.020;-1.740;2022-10-23T09:00:00;98420.03;;;11.10;100.00
51452;BME280;37521;52.020;-1.740;2022-10-23T09:02:35;98403.72;;;11.16;100.00
51452;BME280;37521;52.020;-1.740;2022-10-23T09:05:12;98426.31;;;11.20;100.00
51452;BME280;37521;52.020;-1.740;2022-10-23T09:07:47;98421.03;;;11.20;100.00
51452;BME280;37521;52.020;-1.740;2022-10-23T09:10:33;98421.88;;;11.21;100.00
51452;BME280;37521;52.020;-1.740;2022-10-23T09:13:25;98428.25;;;11.18;100.00
51452;BME280;37521;52.020;-1.740;2022-10-23T09:16:03;98432.69;;;11.17;100.00
51452;BME280;37521;52.020;-1.740;2022-10-23T09:18:40;98449.25;;;11.19;100.00
51452;BME280;37521;52.020;-1.740;2022-10-23T09:21:09;98486.00;;;11.23;100.00
51452;BME280;37521;52.020;-1.740;2022-10-23T09:23:37;98467.19;;;11.27;100.00
51452;BME280;37521;52.020;-1.740;2022-10-23T09:26:11;98464.34;;;11.30;100.00
51452;BME280;37521;52.020;-1.740;2022-10-23T09:28:45;98465.78;;;11.34;100.00
51452;BME280;37521;52.020;-1.740;2022-10-23T09:31:14;98460.28;;;11.37;100.00
51452;BME280;37521;52.020;-1.740;2022-10-23T09:33:54;98444.19;;;11.40;100.00
51452;BME280;37521;52.020;-1.740;2022-10-23T09:36:24;98432.19;;;11.48;100.00
51452;BME280;37521;52.020;-1.740;2022-10-23T09:38:56;98411.56;;;11.53;100.00
51452;BME280;37521;52.020;-1.740;2022-10-23T09:41:27;98382.00;;;11.59;100.00
51452;BME280;37521;52.020;-1.740;2022-10-23T09:44:00;98360.41;;;11.65;100.00
51452;BME280;37521;52.020;-1.740;2022-10-23T09:46:48;98379.03;;;11.74;100.00
51452;BME280;37521;52.020;-1.740;2022-10-23T09:49:20;98365.47;;;11.79;100.00
51452;BME280;37521;52.020;-1.740;2022-10-23T09:51:53;98349.28;;;11.84;100.00
51452;BME280;37521;52.020;-1.740;2022-10-23T09:54:23;98340.84;;;11.90;100.00
51452;BME280;37521;52.020;-1.740;2022-10-23T09:56:53;98335.91;;;11.96;100.00
51452;BME280;37521;52.020;-1.740;2022-10-23T09:59:24;98336.66;;;11.98;100.00
51452;BME280;37521;52.020;-1.740;2022-10-23T10:01:56;98329.16;;;12.04;100.00
51452;BME280;37521;52.020;-1.740;2022-10-23T10:04:46;98333.53;;;12.05;100.00
51452;BME280;37521;52.020;-1.740;2022-10-23T10:07:18;98342.41;;;12.04;100.00
51452;BME280;37521;52.020;-1.740;2022-10-23T10:09:47;98338.81;;;12.05;100.00
51452;BME280;37521;52.020;-1.740;2022-10-23T10:12:26;98343.13;;;12.06;100.00
51452;BME280;37521;52.020;-1.740;2022-10-23T10:15:03;98348.66;;;12.14;100.00
51452;BME280;37521;52.020;-1.740;2022-10-23T10:17:41;98344.34;;;12.24;100.00
51452;BME280;37521;52.020;-1.740;2022-10-23T10:20:39;98352.25;;;12.35;100.00
51452;BME280;37521;52.020;-1.740;2022-10-23T10:23:17;98342.84;;;12.42;100.00
51452;BME280;37521;52.020;-1.740;2022-10-23T10:25:55;98347.28;;;12.42;100.00
51452;BME280;37521;52.020;-1.740;2022-10-23T10:28:32;98342.63;;;12.34;100.00
51452;BME280;37521;52.020;-1.740;2022-10-23T10:31:13;98344.34;;;12.24;100.00
51452;BME280;37521;52.020;-1.740;2022-10-23T10:33:49;98335.44;;;12.25;100.00
51452;BME280;37521;52.020;-1.740;2022-10-23T10:36:38;98330.72;;;12.28;100.00
51452;BME280;37521;52.020;-1.740;2022-10-23T10:39:12;98323.75;;;12.27;100.00
51452;BME280;37521;52.020;-1.740;2022-10-23T10:41:49;98347.34;;;12.31;100.00
51452;BME280;37521;52.020;-1.740;2022-10-23T10:44:36;98330.91;;;12.48;100.00
51452;BME280;37521;52.020;-1.740;2022-10-23T10:47:13;98335.47;;;12.57;100.00
51452;BME280;37521;52.020;-1.740;2022-10-23T10:49:58;98335.22;;;12.60;100.00
51452;BME280;37521;52.020;-1.740;2022-10-23T10:52:57;98334.38;;;12.60;100.00
51452;BME280;37521;52.020;-1.740;2022-10-23T10:55:32;98337.03;;;12.60;100.00
51452;BME280;37521;52.020;-1.740;2022-10-23T10:58:05;98339.25;;;12.75;100.00
51452;BME280;37521;52.020;-1.740;2022-10-23T11:00:42;98344.56;;;12.75;100.00
51452;BME280;37521;52.020;-1.740;2022-10-23T11:03:23;98335.81;;;12.64;100.00
51452;BME280;37521;52.020;-1.740;2022-10-23T11:05:56;98349.31;;;12.61;100.00
51452;BME280;37521;52.020;-1.740;2022-10-23T11:08:33;98351.47;;;12.55;100.00
51452;BME280;37521;52.020;-1.740;2022-10-23T11:11:25;98347.75;;;12.58;100.00
51452;BME280;37521;52.020;-1.740;2022-10-23T11:13:55;98341.63;;;12.58;100.00
51452;BME280;37521;52.020;-1.740;2022-10-23T11:16:26;98349.31;;;12.49;100.00
51452;BME280;37521;52.020;-1.740;2022-10-23T11:19:03;98357.53;;;12.46;100.00
51452;BME280;37521;52.020;-1.740;2022-10-23T11:21:42;98349.72;;;12.45;100.00
51452;BME280;37521;52.020;-1.740;2022-10-23T11:27:27;98346.81;;;12.48;100.00
51452;BME280;37521;52.020;-1.740;2022-10-23T11:30:11;98347.41;;;12.51;100.00
51452;BME280;37521;52.020;-1.740;2022-10-23T11:32:53;98346.91;;;12.58;100.00
51452;BME280;37521;52.020;-1.740;2022-10-23T11:35:47;98340.66;;;12.59;100.00
51452;BME280;37521;52.020;-1.740;2022-10-23T11:38:18;98335.81;;;12.64;100.00
51452;BME280;37521;52.020;-1.740;2022-10-23T11:40:55;98331.47;;;12.63;100.00
51452;BME280;37521;52.020;-1.740;2022-10-23T11:43:26;98319.91;;;12.64;100.00
51452;BME280;37521;52.020;-1.740;2022-10-23T11:45:55;98309.75;;;12.80;100.00
51452;BME280;37521;52.020;-1.740;2022-10-23T11:48:36;98302.78;;;12.79;100.00
51452;BME280;37521;52.020;-1.740;2022-10-23T11:51:23;98303.50;;;12.81;100.00
51452;BME280;37521;52.020;-1.740;2022-10-23T11:54:04;98284.72;;;12.84;100.00
51452;BME280;37521;52.020;-1.740;2022-10-23T11:56:34;98281.16;;;12.95;100.00
51452;BME280;37521;52.020;-1.740;2022-10-23T11:59:20;98271.06;;;13.21;100.00
51452;BME280;37521;52.020;-1.740;2022-10-23T12:01:50;98274.53;;;13.42;100.00
51452;BME280;37521;52.020;-1.740;2022-10-23T12:04:22;98270.00;;;13.33;100.00
51452;BME280;37521;52.020;-1.740;2022-10-23T12:06:54;98265.59;;;13.43;100.00
51452;BME280;37521;52.020;-1.740;2022-10-23T12:09:26;98268.66;;;13.39;100.00
51452;BME280;37521;52.020;-1.740;2022-10-23T12:12:14;98256.47;;;13.15;100.00
51452;BME280;37521;52.020;-1.740;2022-10-23T12:14:44;98257.25;;;13.06;100.00
51452;BME280;37521;52.020;-1.740;2022-10-23T12:17:28;98251.13;;;13.05;100.00
51452;BME280;37521;52.020;-1.740;2022-10-23T12:20:08;98243.34;;;13.25;100.00
51452;BME280;37521;52.020;-1.740;2022-10-23T12:22:53;98247.13;;;13.32;100.00
51452;BME280;37521;52.020;-1.740;2022-10-23T12:25:30;98234.53;;;13.55;100.00
51452;BME280;37521;52.020;-1.740;2022-10-23T12:28:07;98235.78;;;13.51;100.00
51452;BME280;37521;52.020;-1.740;2022-10-23T12:30:43;98229.28;;;13.34;100.00
51452;BME280;37521;52.020;-1.740;2022-10-23T12:33:20;98219.66;;;13.33;100.00
51452;BME280;37521;52.020;-1.740;2022-10-23T12:36:05;98215.03;;;13.35;100.00
51452;BME280;37521;52.020;-1.740;2022-10-23T12:38:40;98211.56;;;13.34;100.00
51452;BME280;37521;52.020;-1.740;2022-10-23T12:41:12;98202.47;;;13.27;100.00
51452;BME280;37521;52.020;-1.740;2022-10-23T12:43:50;98198.53;;;13.22;100.00
51452;BME280;37521;52.020;-1.740;2022-10-23T12:46:33;98181.03;;;13.40;100.00
51452;BME280;37521;52.020;-1.740;2022-10-23T12:49:12;98172.19;;;13.70;100.00
51452;BME280;37521;52.020;-1.740;2022-10-23T12:51:41;98163.84;;;13.75;100.00
51452;BME280;37521;52.020;-1.740;2022-10-23T12:54:16;98168.06;;;13.87;100.00
51452;BME280;37521;52.020;-1.740;2022-10-23T12:56:44;98160.81;;;14.08;100.00
51452;BME280;37521;52.020;-1.740;2022-10-23T12:59:17;98156.66;;;14.25;100.00
51452;BME280;37521;52.020;-1.740;2022-10-23T13:01:46;98153.00;;;14.36;100.00
51452;BME280;37521;52.020;-1.740;2022-10-23T13:04:24;98152.84;;;14.08;100.00
51452;BME280;37521;52.020;-1.740;2022-10-23T13:06:56;98147.91;;;13.75;100.00
51452;BME280;37521;52.020;-1.740;2022-10-23T13:09:28;98153.50;;;13.72;100.00
51452;BME280;37521;52.020;-1.740;2022-10-23T13:12:17;98147.09;;;13.84;100.00
51452;BME280;37521;52.020;-1.740;2022-10-23T13:14:57;98136.50;;;13.94;100.00
51452;BME280;37521;52.020;-1.740;2022-10-23T13:17:33;98121.72;;;13.91;100.00
51452;BME280;37521;52.020;-1.740;2022-10-23T13:20:22;98130.38;;;13.93;100.00